createdAt,value
2022-11-28T00:00:57.533Z,1005.86
2022-11-28T00:01:57.590Z,1005.85
2022-11-28T00:02:57.670Z,1005.84
2022-11-28T00:03:57.489Z,1005.82
2022-11-28T00:04:57.521Z,1005.82
2022-11-28T00:05:57.464Z,1005.83
2022-11-28T00:06:57.576Z,1005.84
2022-11-28T00:07:57.550Z,1005.85
2022-11-28T00:08:57.526Z,1005.84
2022-11-28T00:09:57.466Z,1005.82
2022-11-28T00:10:57.444Z,1005.81
2022-11-28T00:11:57.415Z,1005.80
2022-11-28T00:12:57.486Z,1005.81
2022-11-28T00:13:58.110Z,1005.82
2022-11-28T00:14:57.459Z,1005.83
2022-11-28T00:15:57.582Z,1005.82
2022-11-28T00:16:57.404Z,1005.81
2022-11-28T00:17:57.351Z,1005.81
2022-11-28T00:18:57.351Z,1005.81
2022-11-28T00:19:57.350Z,1005.80
2022-11-28T00:20:57.316Z,1005.81
2022-11-28T00:21:57.297Z,1005.82
2022-11-28T00:22:57.293Z,1005.81
2022-11-28T00:23:57.288Z,1005.80
2022-11-28T00:24:57.299Z,1005.81
2022-11-28T00:25:57.254Z,1005.81
2022-11-28T00:26:57.264Z,1005.79
2022-11-28T00:27:57.260Z,1005.78
2022-11-28T00:28:57.267Z,1005.78
2022-11-28T00:29:57.243Z,1005.76
2022-11-28T00:30:57.250Z,1005.75
2022-11-28T00:31:57.219Z,1005.74
2022-11-28T00:32:57.219Z,1005.73
2022-11-28T00:33:57.218Z,1005.72
2022-11-28T00:34:57.204Z,1005.72
2022-11-28T00:35:57.163Z,1005.74
2022-11-28T00:36:57.161Z,1005.75
2022-11-28T00:37:57.144Z,1005.75
2022-11-28T00:38:57.156Z,1005.74
2022-11-28T00:39:57.121Z,1005.73
2022-11-28T00:40:57.145Z,1005.73
2022-11-28T00:41:57.121Z,1005.72
2022-11-28T00:42:57.093Z,1005.72
2022-11-28T00:43:57.082Z,1005.71
2022-11-28T00:44:57.075Z,1005.71
2022-11-28T00:45:57.127Z,1005.69
2022-11-28T00:46:57.124Z,1005.68
2022-11-28T00:47:57.057Z,1005.67
2022-11-28T00:48:57.042Z,1005.68
2022-11-28T00:49:57.042Z,1005.68
2022-11-28T00:50:57.042Z,1005.67
2022-11-28T00:51:57.036Z,1005.66
2022-11-28T00:52:57.024Z,1005.65
2022-11-28T00:53:57.018Z,1005.64
2022-11-28T00:54:56.979Z,1005.65
2022-11-28T00:55:56.964Z,1005.67
2022-11-28T00:56:56.997Z,1005.67
2022-11-28T00:57:57.035Z,1005.66
2022-11-28T00:58:56.939Z,1005.62
2022-11-28T00:59:56.946Z,1005.59
2022-11-28T01:00:56.949Z,1005.56
2022-11-28T01:01:56.924Z,1005.56
2022-11-28T01:02:56.908Z,1005.56
2022-11-28T01:03:56.909Z,1005.55
2022-11-28T01:04:56.896Z,1005.56
2022-11-28T01:05:56.880Z,1005.56
2022-11-28T01:06:56.855Z,1005.56
2022-11-28T01:07:56.992Z,1005.56
2022-11-28T01:08:56.834Z,1005.54
2022-11-28T01:09:56.902Z,1005.53
2022-11-28T01:10:56.865Z,1005.53
2022-11-28T01:11:56.836Z,1005.55
2022-11-28T01:12:56.828Z,1005.56
2022-11-28T01:13:56.792Z,1005.56
2022-11-28T01:14:56.784Z,1005.57
2022-11-28T01:15:56.776Z,1005.59
2022-11-28T01:16:56.781Z,1005.56
2022-11-28T01:17:56.758Z,1005.55
2022-11-28T01:18:56.735Z,1005.54
2022-11-28T01:19:56.725Z,1005.51
2022-11-28T01:20:56.761Z,1005.49
2022-11-28T01:21:56.714Z,1005.48
2022-11-28T01:22:56.734Z,1005.48
2022-11-28T01:23:56.706Z,1005.43
2022-11-28T01:24:56.692Z,1005.40
2022-11-28T01:25:56.693Z,1005.37
2022-11-28T01:26:56.662Z,1005.36
2022-11-28T01:27:56.663Z,1005.35
2022-11-28T01:28:56.666Z,1005.36
2022-11-28T01:29:56.633Z,1005.37
2022-11-28T01:30:56.637Z,1005.37
2022-11-28T01:31:56.648Z,1005.39
2022-11-28T01:32:56.657Z,1005.41
2022-11-28T01:33:56.653Z,1005.40
2022-11-28T01:34:56.675Z,1005.39
2022-11-28T01:35:56.581Z,1005.37
2022-11-28T01:36:56.601Z,1005.33
2022-11-28T01:37:56.561Z,1005.32
2022-11-28T01:38:56.545Z,1005.31
2022-11-28T01:39:56.592Z,1005.26
2022-11-28T01:40:56.554Z,1005.23
2022-11-28T01:41:56.515Z,1005.19
2022-11-28T01:42:56.533Z,1005.18
2022-11-28T01:43:56.513Z,1005.16
2022-11-28T01:44:56.439Z,1005.19
2022-11-28T01:45:56.472Z,1005.19
2022-11-28T01:46:56.502Z,1005.19
2022-11-28T01:47:56.442Z,1005.18
2022-11-28T01:48:56.463Z,1005.15
2022-11-28T01:49:56.451Z,1005.15
2022-11-28T01:50:56.407Z,1005.14
2022-11-28T01:51:56.417Z,1005.13
2022-11-28T01:52:56.476Z,1005.11
2022-11-28T01:53:56.401Z,1005.13
2022-11-28T01:54:56.398Z,1005.14
2022-11-28T01:55:56.390Z,1005.13
2022-11-28T01:56:56.397Z,1005.11
2022-11-28T01:57:56.395Z,1005.09
2022-11-28T01:58:56.346Z,1005.07
2022-11-28T01:59:56.420Z,1005.06
2022-11-28T02:00:56.371Z,1005.08
2022-11-28T02:01:56.389Z,1005.09
2022-11-28T02:02:56.308Z,1005.07
2022-11-28T02:03:56.330Z,1005.06
2022-11-28T02:04:56.312Z,1005.04
2022-11-28T02:05:56.279Z,1005.03
2022-11-28T02:06:56.250Z,1005.02
2022-11-28T02:07:56.309Z,1005.00
2022-11-28T02:08:56.237Z,1004.98
2022-11-28T02:09:56.228Z,1004.96
2022-11-28T02:10:56.276Z,1004.94
2022-11-28T02:11:56.211Z,1004.94
2022-11-28T02:12:56.197Z,1004.93
2022-11-28T02:13:56.197Z,1004.92
2022-11-28T02:14:56.214Z,1004.90
2022-11-28T02:15:56.257Z,1004.88
2022-11-28T02:16:56.156Z,1004.89
2022-11-28T02:17:56.165Z,1004.88
2022-11-28T02:18:56.147Z,1004.88
2022-11-28T02:19:56.166Z,1004.88
2022-11-28T02:20:56.119Z,1004.88
2022-11-28T02:21:56.107Z,1004.88
2022-11-28T02:22:56.098Z,1004.86
2022-11-28T02:23:56.096Z,1004.84
2022-11-28T02:24:56.099Z,1004.84
2022-11-28T02:25:56.090Z,1004.81
2022-11-28T02:26:56.085Z,1004.81
2022-11-28T02:27:56.082Z,1004.81
2022-11-28T02:28:56.065Z,1004.80
2022-11-28T02:29:56.074Z,1004.79
2022-11-28T02:30:56.019Z,1004.79
2022-11-28T02:31:56.102Z,1004.82
2022-11-28T02:32:56.019Z,1004.80
2022-11-28T02:33:56.029Z,1004.80
2022-11-28T02:34:56.051Z,1004.79
2022-11-28T02:35:55.993Z,1004.78
2022-11-28T02:36:55.981Z,1004.78
2022-11-28T02:37:55.963Z,1004.79
2022-11-28T02:38:55.942Z,1004.79
2022-11-28T02:39:55.936Z,1004.79
2022-11-28T02:40:55.952Z,1004.77
2022-11-28T02:41:55.912Z,1004.76
2022-11-28T02:42:55.893Z,1004.75
2022-11-28T02:43:58.377Z,1004.77
2022-11-28T02:44:55.879Z,1004.78
2022-11-28T02:45:55.874Z,1004.78
2022-11-28T02:46:55.942Z,1004.78
2022-11-28T02:47:55.859Z,1004.77
2022-11-28T02:48:55.831Z,1004.75
2022-11-28T02:49:55.884Z,1004.73
2022-11-28T02:50:55.844Z,1004.72
2022-11-28T02:51:55.832Z,1004.71
2022-11-28T02:52:55.804Z,1004.69
2022-11-28T02:53:55.846Z,1004.66
2022-11-28T02:54:55.785Z,1004.67
2022-11-28T02:55:55.773Z,1004.70
2022-11-28T02:56:55.762Z,1004.73
2022-11-28T02:57:55.754Z,1004.73
2022-11-28T02:58:55.776Z,1004.71
2022-11-28T02:59:55.730Z,1004.68
2022-11-28T03:00:55.787Z,1004.65
2022-11-28T03:01:55.778Z,1004.63
2022-11-28T03:02:55.704Z,1004.60
2022-11-28T03:03:55.733Z,1004.58
2022-11-28T03:04:55.705Z,1004.56
2022-11-28T03:05:55.688Z,1004.56
2022-11-28T03:06:55.681Z,1004.55
2022-11-28T03:07:55.677Z,1004.52
2022-11-28T03:08:55.639Z,1004.49
2022-11-28T03:09:55.628Z,1004.49
2022-11-28T03:10:55.657Z,1004.48
2022-11-28T03:11:55.631Z,1004.49
2022-11-28T03:12:55.604Z,1004.50
2022-11-28T03:13:55.616Z,1004.51
2022-11-28T03:14:55.617Z,1004.51
2022-11-28T03:15:55.630Z,1004.51
2022-11-28T03:16:55.568Z,1004.52
2022-11-28T03:17:55.547Z,1004.52
2022-11-28T03:18:55.554Z,1004.51
2022-11-28T03:19:55.546Z,1004.49
2022-11-28T03:20:55.538Z,1004.47
2022-11-28T03:21:55.548Z,1004.47
2022-11-28T03:22:55.502Z,1004.47
2022-11-28T03:23:55.494Z,1004.46
2022-11-28T03:24:55.497Z,1004.45
2022-11-28T03:25:55.483Z,1004.45
2022-11-28T03:26:55.468Z,1004.45
2022-11-28T03:27:55.474Z,1004.45
2022-11-28T03:28:55.459Z,1004.44
2022-11-28T03:29:55.443Z,1004.42
2022-11-28T03:30:55.451Z,1004.41
2022-11-28T03:31:55.473Z,1004.41
2022-11-28T03:32:55.455Z,1004.41
2022-11-28T03:33:55.403Z,1004.41
2022-11-28T03:34:55.379Z,1004.41
2022-11-28T03:35:55.411Z,1004.40
2022-11-28T03:36:55.378Z,1004.39
2022-11-28T03:37:55.365Z,1004.35
2022-11-28T03:38:55.345Z,1004.29
2022-11-28T03:39:55.384Z,1004.24
2022-11-28T03:40:55.318Z,1004.20
2022-11-28T03:41:55.348Z,1004.15
2022-11-28T03:42:55.305Z,1004.14
2022-11-28T03:43:55.294Z,1004.13
2022-11-28T03:44:55.274Z,1004.15
2022-11-28T03:45:55.299Z,1004.14
2022-11-28T03:46:55.357Z,1004.12
2022-11-28T03:47:55.280Z,1004.12
2022-11-28T03:48:55.242Z,1004.11
2022-11-28T03:49:55.243Z,1004.10
2022-11-28T03:50:55.217Z,1004.10
2022-11-28T03:51:55.288Z,1004.11
2022-11-28T03:52:55.229Z,1004.10
2022-11-28T03:53:55.191Z,1004.09
2022-11-28T03:54:55.185Z,1004.08
2022-11-28T03:55:55.272Z,1004.07
2022-11-28T03:56:55.186Z,1004.06
2022-11-28T03:57:55.173Z,1004.05
2022-11-28T03:58:55.155Z,1004.02
2022-11-28T03:59:55.131Z,1004.01
2022-11-28T04:00:55.194Z,1004.00
2022-11-28T04:01:55.110Z,1003.99
2022-11-28T04:02:55.199Z,1003.99
2022-11-28T04:03:55.125Z,1003.98
2022-11-28T04:04:55.094Z,1003.97
2022-11-28T04:05:55.107Z,1003.95
2022-11-28T04:06:55.115Z,1003.95
2022-11-28T04:07:55.131Z,1003.95
2022-11-28T04:08:55.053Z,1003.94
2022-11-28T04:09:55.082Z,1003.94
2022-11-28T04:10:55.053Z,1003.95
2022-11-28T04:11:55.026Z,1003.96
2022-11-28T04:12:55.089Z,1003.97
2022-11-28T04:13:54.999Z,1004.01
2022-11-28T04:14:54.992Z,1004.04
2022-11-28T04:15:55.045Z,1004.06
2022-11-28T04:16:54.982Z,1004.07
2022-11-28T04:17:55.001Z,1004.08
2022-11-28T04:18:54.944Z,1004.07
2022-11-28T04:19:54.982Z,1004.04
2022-11-28T04:20:55.011Z,1004.04
2022-11-28T04:21:54.932Z,1004.02
2022-11-28T04:22:54.927Z,1004.04
2022-11-28T04:23:54.917Z,1004.06
2022-11-28T04:24:54.892Z,1004.06
2022-11-28T04:25:54.875Z,1004.07
2022-11-28T04:26:54.880Z,1004.05
2022-11-28T04:27:54.860Z,1004.03
2022-11-28T04:28:54.869Z,1004.00
2022-11-28T04:29:54.850Z,1003.99
2022-11-28T04:30:54.830Z,1003.99
2022-11-28T04:31:54.880Z,1004.01
2022-11-28T04:32:54.817Z,1004.02
2022-11-28T04:33:54.791Z,1004.05
2022-11-28T04:34:54.818Z,1004.08
2022-11-28T04:35:54.831Z,1004.08
2022-11-28T04:36:54.787Z,1004.07
2022-11-28T04:37:54.805Z,1004.06
2022-11-28T04:38:54.747Z,1004.06
2022-11-28T04:39:54.738Z,1004.04
2022-11-28T04:40:54.736Z,1004.02
2022-11-28T04:41:54.713Z,1003.99
2022-11-28T04:42:54.745Z,1003.97
2022-11-28T04:43:54.694Z,1003.95
2022-11-28T04:44:54.723Z,1003.92
2022-11-28T04:45:54.784Z,1003.90
2022-11-28T04:46:54.693Z,1003.92
2022-11-28T04:47:54.692Z,1003.94
2022-11-28T04:48:54.651Z,1003.96
2022-11-28T04:49:54.674Z,1003.96
2022-11-28T04:50:54.638Z,1003.97
2022-11-28T04:51:54.621Z,1003.98
2022-11-28T04:52:54.605Z,1003.99
2022-11-28T04:53:54.629Z,1004.02
2022-11-28T04:54:54.595Z,1004.03
2022-11-28T04:55:54.606Z,1004.04
2022-11-28T04:56:54.560Z,1004.03
2022-11-28T04:57:57.461Z,1004.01
2022-11-28T04:58:54.571Z,1003.97
2022-11-28T04:59:54.587Z,1003.95
2022-11-28T05:00:54.909Z,1003.94
2022-11-28T05:01:54.608Z,1003.94
2022-11-28T05:02:54.536Z,1003.93
2022-11-28T05:03:54.524Z,1003.92
2022-11-28T05:04:54.492Z,1003.90
2022-11-28T05:05:54.496Z,1003.89
2022-11-28T05:06:54.495Z,1003.87
2022-11-28T05:07:54.491Z,1003.86
2022-11-28T05:08:54.480Z,1003.84
2022-11-28T05:09:54.468Z,1003.82
2022-11-28T05:10:54.434Z,1003.81
2022-11-28T05:11:54.429Z,1003.80
2022-11-28T05:12:54.461Z,1003.80
2022-11-28T05:13:54.398Z,1003.80
2022-11-28T05:14:54.403Z,1003.80
2022-11-28T05:15:54.399Z,1003.82
2022-11-28T05:16:54.424Z,1003.81
2022-11-28T05:17:54.405Z,1003.80
2022-11-28T05:18:54.408Z,1003.79
2022-11-28T05:19:54.350Z,1003.80
2022-11-28T05:20:54.337Z,1003.80
2022-11-28T05:21:54.341Z,1003.78
2022-11-28T05:22:54.352Z,1003.78
2022-11-28T05:23:54.304Z,1003.79
2022-11-28T05:24:54.328Z,1003.80
2022-11-28T05:25:54.301Z,1003.80
2022-11-28T05:26:54.282Z,1003.81
2022-11-28T05:27:54.288Z,1003.81
2022-11-28T05:28:54.288Z,1003.81
2022-11-28T05:29:54.260Z,1003.78
2022-11-28T05:30:54.303Z,1003.78
2022-11-28T05:31:54.399Z,1003.79
2022-11-28T05:32:54.265Z,1003.79
2022-11-28T05:33:54.224Z,1003.78
2022-11-28T05:34:54.234Z,1003.76
2022-11-28T05:35:54.130Z,1003.73
2022-11-28T05:36:54.173Z,1003.72
2022-11-28T05:37:54.193Z,1003.69
2022-11-28T05:38:54.169Z,1003.68
2022-11-28T05:39:54.157Z,1003.70
2022-11-28T05:40:54.136Z,1003.74
2022-11-28T05:41:54.159Z,1003.79
2022-11-28T05:42:54.124Z,1003.83
2022-11-28T05:43:54.190Z,1003.84
2022-11-28T05:44:54.086Z,1003.84
2022-11-28T05:45:54.136Z,1003.82
2022-11-28T05:46:54.073Z,1003.81
2022-11-28T05:47:54.071Z,1003.80
2022-11-28T05:48:54.066Z,1003.80
2022-11-28T05:49:54.094Z,1003.81
2022-11-28T05:50:53.995Z,1003.83
2022-11-28T05:51:54.153Z,1003.82
2022-11-28T05:52:54.049Z,1003.82
2022-11-28T05:53:54.004Z,1003.82
2022-11-28T05:54:54.162Z,1003.83
2022-11-28T05:55:54.012Z,1003.82
2022-11-28T05:56:53.972Z,1003.81
2022-11-28T05:57:53.969Z,1003.79
2022-11-28T05:58:54.003Z,1003.79
2022-11-28T05:59:53.997Z,1003.79
2022-11-28T06:00:53.954Z,1003.81
2022-11-28T06:01:53.987Z,1003.85
2022-11-28T06:02:58.437Z,1003.89
2022-11-28T06:03:53.927Z,1003.89
2022-11-28T06:04:53.976Z,1003.88
2022-11-28T06:05:53.831Z,1003.85
2022-11-28T06:06:53.891Z,1003.85
2022-11-28T06:07:53.905Z,1003.85
2022-11-28T06:08:53.885Z,1003.85
2022-11-28T06:09:53.883Z,1003.84
2022-11-28T06:10:53.792Z,1003.83
2022-11-28T06:11:53.760Z,1003.79
2022-11-28T06:12:53.831Z,1003.76
2022-11-28T06:13:53.813Z,1003.77
2022-11-28T06:14:53.795Z,1003.77
2022-11-28T06:15:53.719Z,1003.76
2022-11-28T06:16:53.888Z,1003.74
2022-11-28T06:17:53.755Z,1003.72
2022-11-28T06:18:53.799Z,1003.72
2022-11-28T06:19:53.708Z,1003.74
2022-11-28T06:20:53.758Z,1003.75
2022-11-28T06:21:53.730Z,1003.74
2022-11-28T06:22:53.693Z,1003.74
2022-11-28T06:23:53.716Z,1003.76
2022-11-28T06:24:53.687Z,1003.79
2022-11-28T06:25:53.691Z,1003.81
2022-11-28T06:26:53.696Z,1003.79
2022-11-28T06:27:53.646Z,1003.78
2022-11-28T06:28:53.665Z,1003.76
2022-11-28T06:29:53.631Z,1003.74
2022-11-28T06:30:53.577Z,1003.72
2022-11-28T06:31:53.710Z,1003.73
2022-11-28T06:32:53.651Z,1003.75
2022-11-28T06:33:53.569Z,1003.76
2022-11-28T06:34:53.598Z,1003.76
2022-11-28T06:35:53.577Z,1003.74
2022-11-28T06:36:53.658Z,1003.73
2022-11-28T06:37:53.512Z,1003.73
2022-11-28T06:38:53.537Z,1003.72
2022-11-28T06:39:53.758Z,1003.72
2022-11-28T06:40:53.484Z,1003.72
2022-11-28T06:41:53.469Z,1003.71
2022-11-28T06:42:53.518Z,1003.71
2022-11-28T06:43:53.454Z,1003.73
2022-11-28T06:44:53.494Z,1003.75
2022-11-28T06:45:53.494Z,1003.74
2022-11-28T06:46:53.426Z,1003.72
2022-11-28T06:47:53.716Z,1003.72
2022-11-28T06:48:53.399Z,1003.74
2022-11-28T06:49:53.423Z,1003.73
2022-11-28T06:50:53.436Z,1003.72
2022-11-28T06:51:53.381Z,1003.72
2022-11-28T06:52:53.357Z,1003.72
2022-11-28T06:53:53.415Z,1003.74
2022-11-28T06:54:53.366Z,1003.75
2022-11-28T06:55:53.320Z,1003.77
2022-11-28T06:56:53.367Z,1003.79
2022-11-28T06:57:53.335Z,1003.80
2022-11-28T06:58:53.301Z,1003.80
2022-11-28T06:59:53.319Z,1003.81
2022-11-28T07:00:53.412Z,1003.82
2022-11-28T07:01:53.348Z,1003.81
2022-11-28T07:02:53.326Z,1003.83
2022-11-28T07:03:53.241Z,1003.86
2022-11-28T07:04:53.251Z,1003.88
2022-11-28T07:05:53.310Z,1003.90
2022-11-28T07:06:53.215Z,1003.92
2022-11-28T07:07:54.615Z,1003.94
2022-11-28T07:08:53.245Z,1003.96
2022-11-28T07:09:53.219Z,1003.97
2022-11-28T07:10:53.182Z,1003.96
2022-11-28T07:11:53.427Z,1003.91
2022-11-28T07:12:53.173Z,1003.84
2022-11-28T07:13:53.181Z,1003.81
2022-11-28T07:14:53.151Z,1003.83
2022-11-28T07:15:53.168Z,1003.89
2022-11-28T07:16:52.203Z,1003.92
2022-11-28T07:17:53.121Z,1003.95
2022-11-28T07:18:53.154Z,1003.96
2022-11-28T07:19:55.164Z,1003.99
2022-11-28T07:20:53.131Z,1004.01
2022-11-28T07:21:53.193Z,1004.03
2022-11-28T07:22:53.111Z,1004.04
2022-11-28T07:23:53.249Z,1004.07
2022-11-28T07:24:53.057Z,1004.08
2022-11-28T07:25:53.083Z,1004.08
2022-11-28T07:26:53.085Z,1004.08
2022-11-28T07:27:53.250Z,1004.07
2022-11-28T07:28:53.002Z,1004.07
2022-11-28T07:29:52.979Z,1004.05
2022-11-28T07:30:52.978Z,1004.02
2022-11-28T07:31:53.015Z,1004.00
2022-11-28T07:32:52.974Z,1003.98
2022-11-28T07:33:52.956Z,1003.96
2022-11-28T07:34:52.960Z,1003.95
2022-11-28T07:35:52.921Z,1003.94
2022-11-28T07:36:52.925Z,1003.92
2022-11-28T07:37:52.935Z,1003.93
2022-11-28T07:38:52.894Z,1003.96
2022-11-28T07:39:52.884Z,1003.97
2022-11-28T07:40:52.899Z,1003.98
2022-11-28T07:41:52.917Z,1003.98
2022-11-28T07:42:52.865Z,1003.98
2022-11-28T07:43:52.897Z,1004.01
2022-11-28T07:44:52.864Z,1004.04
2022-11-28T07:46:00.910Z,1004.00
2022-11-28T07:46:53.017Z,1003.97
2022-11-28T07:47:52.851Z,1004.00
2022-11-28T07:48:52.808Z,1004.03
2022-11-28T07:49:52.823Z,1004.04
2022-11-28T07:50:52.782Z,1004.02
2022-11-28T07:51:52.849Z,1004.06
2022-11-28T07:52:52.795Z,1004.07
2022-11-28T07:53:54.189Z,1004.07
2022-11-28T07:54:52.747Z,1004.07
2022-11-28T07:55:52.734Z,1004.06
2022-11-28T07:57:52.733Z,1004.03
2022-11-28T07:58:52.725Z,1004.04
2022-11-28T07:59:52.702Z,1004.03
2022-11-28T08:00:52.694Z,1004.00
2022-11-28T08:01:52.705Z,1003.97
2022-11-28T08:02:52.676Z,1003.96
2022-11-28T08:03:52.646Z,1003.96
2022-11-28T08:04:55.218Z,1003.94
2022-11-28T08:05:52.660Z,1003.94
2022-11-28T08:06:52.655Z,1003.93
2022-11-28T08:07:52.643Z,1003.95
2022-11-28T08:08:52.616Z,1003.96
2022-11-28T08:09:52.646Z,1003.94
2022-11-28T08:10:52.595Z,1003.94
2022-11-28T08:11:52.634Z,1003.96
2022-11-28T08:12:52.583Z,1003.96
2022-11-28T08:13:55.056Z,1003.94
2022-11-28T08:14:52.600Z,1003.91
2022-11-28T08:15:52.560Z,1003.91
2022-11-28T08:16:52.593Z,1003.90
2022-11-28T08:17:52.526Z,1003.90
2022-11-28T08:18:52.533Z,1003.90
2022-11-28T08:19:52.551Z,1003.90
2022-11-28T08:20:52.484Z,1003.88
2022-11-28T08:21:52.475Z,1003.90
2022-11-28T08:22:52.558Z,1003.90
2022-11-28T08:23:52.515Z,1003.90
2022-11-28T08:24:52.448Z,1003.88
2022-11-28T08:25:52.480Z,1003.85
2022-11-28T08:26:52.422Z,1003.84
2022-11-28T08:27:52.558Z,1003.84
2022-11-28T08:28:52.399Z,1003.82
2022-11-28T08:29:54.007Z,1003.76
2022-11-28T08:30:52.427Z,1003.70
2022-11-28T08:31:52.414Z,1003.65
2022-11-28T08:32:52.421Z,1003.65
2022-11-28T08:33:52.388Z,1003.69
2022-11-28T08:34:52.362Z,1003.75
2022-11-28T08:35:52.336Z,1003.81
2022-11-28T08:36:52.328Z,1003.83
2022-11-28T08:37:52.331Z,1003.83
2022-11-28T08:39:52.301Z,1003.85
2022-11-28T08:40:52.297Z,1003.89
2022-11-28T08:41:52.291Z,1003.91
2022-11-28T08:42:52.260Z,1003.92
2022-11-28T08:43:52.296Z,1003.93
2022-11-28T08:44:52.253Z,1003.92
2022-11-28T08:45:52.386Z,1003.90
2022-11-28T08:46:52.287Z,1003.89
2022-11-28T08:47:52.205Z,1003.89
2022-11-28T08:48:52.200Z,1003.91
2022-11-28T08:49:52.270Z,1003.90
2022-11-28T08:50:52.217Z,1003.89
2022-11-28T08:51:52.170Z,1003.91
2022-11-28T08:52:52.169Z,1003.93
2022-11-28T08:53:57.834Z,1003.95
2022-11-28T08:54:52.190Z,1003.97
2022-11-28T08:55:52.193Z,1003.97
2022-11-28T08:56:52.143Z,1003.97
2022-11-28T08:57:52.136Z,1003.96
2022-11-28T08:58:52.155Z,1003.94
2022-11-28T08:59:52.145Z,1003.91
2022-11-28T09:00:52.140Z,1003.89
2022-11-28T09:01:52.172Z,1003.87
2022-11-28T09:02:52.066Z,1003.88
2022-11-28T09:03:52.149Z,1003.88
2022-11-28T09:04:52.092Z,1003.88
2022-11-28T09:05:52.032Z,1003.88
2022-11-28T09:06:52.060Z,1003.88
2022-11-28T09:07:52.131Z,1003.86
2022-11-28T09:08:52.002Z,1003.85
2022-11-28T09:09:52.005Z,1003.84
2022-11-28T09:10:52.065Z,1003.85
2022-11-28T09:11:51.991Z,1003.88
2022-11-28T09:12:52.018Z,1003.89
2022-11-28T09:13:51.951Z,1003.88
2022-11-28T09:14:51.998Z,1003.88
2022-11-28T09:15:53.713Z,1003.89
2022-11-28T09:16:51.987Z,1003.91
2022-11-28T09:17:51.907Z,1003.90
2022-11-28T09:18:51.904Z,1003.89
2022-11-28T09:19:51.907Z,1003.87
2022-11-28T09:20:51.875Z,1003.87
2022-11-28T09:21:57.375Z,1003.87
2022-11-28T09:22:51.892Z,1003.89
2022-11-28T09:23:51.866Z,1003.89
2022-11-28T09:24:51.833Z,1003.90
2022-11-28T09:25:51.857Z,1003.91
2022-11-28T09:26:51.806Z,1003.93
2022-11-28T09:27:51.845Z,1003.94
2022-11-28T09:28:51.800Z,1003.94
2022-11-28T09:29:51.808Z,1003.92
2022-11-28T09:30:51.828Z,1003.89
2022-11-28T09:31:51.816Z,1003.87
2022-11-28T09:32:51.793Z,1003.86
2022-11-28T09:33:51.798Z,1003.85
2022-11-28T09:34:51.742Z,1003.83
2022-11-28T09:35:51.808Z,1003.84
2022-11-28T09:36:51.721Z,1003.86
2022-11-28T09:37:51.707Z,1003.86
2022-11-28T09:38:51.721Z,1003.86
2022-11-28T09:40:11.955Z,1003.86
2022-11-28T09:40:51.710Z,1003.84
2022-11-28T09:41:51.681Z,1003.85
2022-11-28T09:42:51.714Z,1003.86
2022-11-28T09:43:54.919Z,1003.87
2022-11-28T09:44:51.659Z,1003.86
2022-11-28T09:45:51.705Z,1003.86
2022-11-28T09:46:51.679Z,1003.87
2022-11-28T09:47:51.614Z,1003.87
2022-11-28T09:48:51.691Z,1003.86
2022-11-28T09:49:51.676Z,1003.88
2022-11-28T09:50:51.597Z,1003.89
2022-11-28T09:51:51.594Z,1003.90
2022-11-28T09:52:51.596Z,1003.88
2022-11-28T09:53:51.584Z,1003.85
2022-11-28T09:54:51.586Z,1003.87
2022-11-28T09:55:51.549Z,1003.87
2022-11-28T09:56:51.522Z,1003.87
2022-11-28T09:57:51.524Z,1003.86
2022-11-28T09:58:51.531Z,1003.87
2022-11-28T09:59:51.515Z,1003.84
2022-11-28T10:00:55.400Z,1003.82
2022-11-28T10:01:51.474Z,1003.83
2022-11-28T10:02:51.463Z,1003.83
2022-11-28T10:03:51.581Z,1003.84
2022-11-28T10:04:51.609Z,1003.83
2022-11-28T10:05:51.484Z,1003.81
2022-11-28T10:06:51.454Z,1003.81
2022-11-28T10:07:54.991Z,1003.81
2022-11-28T10:08:51.452Z,1003.80
2022-11-28T10:09:51.419Z,1003.79
2022-11-28T10:10:51.395Z,1003.78
2022-11-28T10:11:51.387Z,1003.77
2022-11-28T10:12:51.389Z,1003.77
2022-11-28T10:14:07.572Z,1003.77
2022-11-28T10:14:51.364Z,1003.77
2022-11-28T10:15:51.395Z,1003.76
2022-11-28T10:16:51.387Z,1003.75
2022-11-28T10:17:51.325Z,1003.75
2022-11-28T10:18:51.333Z,1003.75
2022-11-28T10:19:55.114Z,1003.74
2022-11-28T10:20:51.291Z,1003.75
2022-11-28T10:21:55.032Z,1003.76
2022-11-28T10:22:51.325Z,1003.77
2022-11-28T10:23:51.437Z,1003.77
2022-11-28T10:24:51.330Z,1003.78
2022-11-28T10:25:51.352Z,1003.77
2022-11-28T10:26:52.256Z,1003.77
2022-11-28T10:27:51.211Z,1003.77
2022-11-28T10:28:51.256Z,1003.76
2022-11-28T10:29:51.202Z,1003.74
2022-11-28T10:30:51.307Z,1003.73
2022-11-28T10:31:51.218Z,1003.70
2022-11-28T10:32:51.248Z,1003.70
2022-11-28T10:33:51.213Z,1003.69
2022-11-28T10:34:51.168Z,1003.69
2022-11-28T10:35:51.326Z,1003.70
2022-11-28T10:36:52.809Z,1003.71
2022-11-28T10:37:51.115Z,1003.69
2022-11-28T10:38:51.146Z,1003.68
2022-11-28T10:39:51.106Z,1003.67
2022-11-28T10:40:51.119Z,1003.68
2022-11-28T10:41:51.087Z,1003.69
2022-11-28T10:42:51.123Z,1003.71
2022-11-28T10:43:51.067Z,1003.71
2022-11-28T10:44:51.051Z,1003.70
2022-11-28T10:45:51.090Z,1003.69
2022-11-28T10:46:51.126Z,1003.67
2022-11-28T10:47:52.708Z,1003.66
2022-11-28T10:48:51.066Z,1003.65
2022-11-28T10:49:51.009Z,1003.63
2022-11-28T10:50:50.986Z,1003.62
2022-11-28T10:51:51.017Z,1003.62
2022-11-28T10:52:50.956Z,1003.61
2022-11-28T10:53:50.974Z,1003.59
2022-11-28T10:54:50.990Z,1003.56
2022-11-28T10:55:50.965Z,1003.55
2022-11-28T10:56:50.979Z,1003.53
2022-11-28T10:57:51.161Z,1003.51
2022-11-28T10:58:50.923Z,1003.51
2022-11-28T10:59:50.901Z,1003.53
2022-11-28T11:00:50.883Z,1003.53
2022-11-28T11:01:50.971Z,1003.54
2022-11-28T11:02:50.913Z,1003.54
2022-11-28T11:03:50.897Z,1003.53
2022-11-28T11:04:50.979Z,1003.52
2022-11-28T11:05:50.844Z,1003.52
2022-11-28T11:07:07.584Z,1003.53
2022-11-28T11:07:50.933Z,1003.53
2022-11-28T11:08:50.801Z,1003.52
2022-11-28T11:09:50.850Z,1003.50
2022-11-28T11:10:50.790Z,1003.50
2022-11-28T11:11:50.796Z,1003.49
2022-11-28T11:12:51.078Z,1003.50
2022-11-28T11:13:50.858Z,1003.51
2022-11-28T11:14:50.748Z,1003.51
2022-11-28T11:15:50.815Z,1003.50
2022-11-28T11:16:50.853Z,1003.50
2022-11-28T11:17:50.769Z,1003.50
2022-11-28T11:18:50.761Z,1003.50
2022-11-28T11:19:50.743Z,1003.50
2022-11-28T11:20:50.704Z,1003.49
2022-11-28T11:21:50.784Z,1003.48
2022-11-28T11:22:50.722Z,1003.48
2022-11-28T11:23:50.691Z,1003.47
2022-11-28T11:24:50.644Z,1003.47
2022-11-28T11:25:50.726Z,1003.47
2022-11-28T11:26:50.639Z,1003.48
2022-11-28T11:27:50.704Z,1003.48
2022-11-28T11:28:50.659Z,1003.48
2022-11-28T11:29:51.687Z,1003.48
2022-11-28T11:30:50.774Z,1003.49
2022-11-28T11:31:50.686Z,1003.49
2022-11-28T11:32:51.769Z,1003.49
2022-11-28T11:33:50.595Z,1003.49
2022-11-28T11:34:50.623Z,1003.48
2022-11-28T11:35:50.580Z,1003.47
2022-11-28T11:36:50.547Z,1003.45
2022-11-28T11:37:50.534Z,1003.44
2022-11-28T11:38:50.887Z,1003.44
2022-11-28T11:39:50.503Z,1003.45
2022-11-28T11:40:50.475Z,1003.45
2022-11-28T11:41:50.493Z,1003.45
2022-11-28T11:42:50.498Z,1003.45
2022-11-28T11:43:50.474Z,1003.44
2022-11-28T11:44:50.541Z,1003.43
2022-11-28T11:45:52.584Z,1003.42
2022-11-28T11:46:50.523Z,1003.41
2022-11-28T11:47:50.568Z,1003.41
2022-11-28T11:48:50.542Z,1003.40
2022-11-28T11:49:50.429Z,1003.40
2022-11-28T11:50:50.501Z,1003.38
2022-11-28T11:51:50.600Z,1003.38
2022-11-28T11:52:50.629Z,1003.38
2022-11-28T11:53:50.476Z,1003.38
2022-11-28T11:54:50.349Z,1003.38
2022-11-28T11:55:50.345Z,1003.38
2022-11-28T11:57:00.632Z,1003.39
2022-11-28T11:57:50.361Z,1003.41
2022-11-28T11:58:50.604Z,1003.43
2022-11-28T11:59:50.397Z,1003.43
2022-11-28T12:00:50.311Z,1003.44
2022-11-28T12:01:50.279Z,1003.43
2022-11-28T12:02:50.504Z,1003.42
2022-11-28T12:03:51.290Z,1003.40
2022-11-28T12:04:55.110Z,1003.37
2022-11-28T12:06:13.383Z,1003.35
2022-11-28T12:06:50.331Z,1003.35
2022-11-28T12:07:50.268Z,1003.35